Aérodrome :
LOGIN :

S'inscrire | Disclaimer

   EN    FR    IT 

 










Légende :    VFR   VFR Marginal   IFR   IFR Intensif   IFR Très Intensif
Visi : 
Plafond : 
>= 8 km
>= 3000ft
5 à 8 km
1000 à 3000 ft
1500m à 5 km
500 à 1000 ft
800 à 1500m
200 à 500 ft
< 800m
< 200 ft
Symboles :   Orages  Brouillard  Fortes neiges  Fortes précipitations  Vent > 20 kt
SIGMETs :   Divers  Orages  Givrage  Turbulence  Onde Orograph.  Cendres Volcan.






- Altitude de l'aérodrome : 512 ft
- Code IATA : URO


LFOP - Rouen Vallée de Seine

DERNIER METAR :
  • 021700Z AUTO 34012KT CAVOK 21/12 Q1019 NOSIG

METARs EXPIRÉS :
  • 021630Z AUTO 33012KT 310V010 CAVOK 22/12 Q1018 NOSIG
  • 021600Z AUTO 27006KT 230V320 CAVOK 24/09 Q1018 NOSIG
  • 021530Z AUTO 20005KT 150V270 CAVOK 23/09 Q1018 BECMG 35010KT
  • 021500Z AUTO 25006KT 200V300 CAVOK 25/09 Q1018 NOSIG
  • 020300Z AUTO 12005KT CAVOK 10/09 Q1021
  • 021430Z AUTO 21010KT 170V240 CAVOK 24/09 Q1019 BECMG 35010KT

TAF TAF LFOP
Valide du 02 à 12h jusqu'au 03 à 12h UTC


021100Z 0212/0312 19006KT CAVOK
BECMG 0216/0218 35010KT
BECMG 0221/0224 29005KT
TEMPO 0303/0306 3000 BR
ATIS : +33 2 35 80 80 34
Météo : +33 2 32 86 52 80



MET'MAP, la Météo Aéronautique d'un coup d'oeil ! - Copyright ORBIFLY Décembre 2007 - Disclaimer

ORBIFLY MET'MAP TEAM :

Programmation & Développement : Alexandra Zaïnal
Sur une idée originale de : Baudouin d'Aumeries
Soutien technique & logistique : Manuel Goepfert
Assistance : Marc-Olivier Méhu




SOURCES & CREDITS :

   NOAA